sensor_id;sensor_type;location;lat;lon;timestamp;pressure;altitude;pressure_sealevel;temperature;humidity
23223;BME280;11780;13.904;100.620;2024-03-17T00:01:41;101334.13;;;31.68;65.98
23223;BME280;11780;13.904;100.620;2024-03-17T00:04:09;101332.56;;;31.76;65.85
23223;BME280;11780;13.904;100.620;2024-03-17T00:06:37;101333.72;;;31.61;66.24
23223;BME280;11780;13.904;100.620;2024-03-17T00:09:04;101332.41;;;31.58;66.29
23223;BME280;11780;13.904;100.620;2024-03-17T00:11:36;101336.50;;;31.61;65.97
23223;BME280;11780;13.904;100.620;2024-03-17T00:14:04;101338.56;;;31.55;66.16
23223;BME280;11780;13.904;100.620;2024-03-17T00:16:32;101339.00;;;31.49;66.25
23223;BME280;11780;13.904;100.620;2024-03-17T00:19:00;101352.53;;;31.50;66.18
23223;BME280;11780;13.904;100.620;2024-03-17T00:21:28;101358.69;;;31.47;66.62
23223;BME280;11780;13.904;100.620;2024-03-17T00:23:56;101354.75;;;31.25;66.85
23223;BME280;11780;13.904;100.620;2024-03-17T00:26:24;101375.53;;;31.37;66.59
23223;BME280;11780;13.904;100.620;2024-03-17T00:28:52;101372.88;;;31.32;66.57
23223;BME280;11780;13.904;100.620;2024-03-17T00:31:20;101378.59;;;31.35;66.39
23223;BME280;11780;13.904;100.620;2024-03-17T00:33:48;101381.25;;;31.40;66.26
23223;BME280;11780;13.904;100.620;2024-03-17T00:36:16;101390.16;;;31.37;66.21
23223;BME280;11780;13.904;100.620;2024-03-17T00:38:43;101386.59;;;31.37;66.00
23223;BME280;11780;13.904;100.620;2024-03-17T00:41:11;101391.47;;;31.40;66.06
23223;BME280;11780;13.904;100.620;2024-03-17T00:43:39;101389.53;;;31.40;66.31
23223;BME280;11780;13.904;100.620;2024-03-17T00:46:07;101390.84;;;31.43;66.15
23223;BME280;11780;13.904;100.620;2024-03-17T00:48:35;101394.13;;;31.45;66.04
23223;BME280;11780;13.904;100.620;2024-03-17T00:51:02;101397.28;;;31.52;66.04
23223;BME280;11780;13.904;100.620;2024-03-17T00:53:30;101403.38;;;31.40;65.95
23223;BME280;11780;13.904;100.620;2024-03-17T00:55:58;101410.09;;;31.48;66.22
23223;BME280;11780;13.904;100.620;2024-03-17T00:58:27;101414.16;;;31.51;65.90
23223;BME280;11780;13.904;100.620;2024-03-17T01:00:56;101417.13;;;31.54;65.80
23223;BME280;11780;13.904;100.620;2024-03-17T01:03:23;101420.22;;;31.53;65.67
23223;BME280;11780;13.904;100.620;2024-03-17T01:05:51;101426.25;;;31.55;65.65
23223;BME280;11780;13.904;100.620;2024-03-17T01:08:20;101428.31;;;31.49;65.75
23223;BME280;11780;13.904;100.620;2024-03-17T01:10:48;101432.72;;;31.50;65.75
23223;BME280;11780;13.904;100.620;2024-03-17T01:13:19;101429.97;;;31.50;65.58
23223;BME280;11780;13.904;100.620;2024-03-17T01:15:51;101426.50;;;31.44;65.67
23223;BME280;11780;13.904;100.620;2024-03-17T01:18:19;101424.72;;;31.49;65.90
23223;BME280;11780;13.904;100.620;2024-03-17T01:20:47;101433.09;;;31.57;65.58
23223;BME280;11780;13.904;100.620;2024-03-17T01:23:15;101426.75;;;31.57;65.57
23223;BME280;11780;13.904;100.620;2024-03-17T01:25:42;101435.75;;;31.63;65.32
23223;BME280;11780;13.904;100.620;2024-03-17T01:28:10;101430.50;;;31.61;65.04
23223;BME280;11780;13.904;100.620;2024-03-17T01:30:38;101434.31;;;31.65;65.15
23223;BME280;11780;13.904;100.620;2024-03-17T01:33:07;101441.91;;;31.73;65.33
23223;BME280;11780;13.904;100.620;2024-03-17T01:35:36;101431.63;;;31.74;65.42
23223;BME280;11780;13.904;100.620;2024-03-17T01:38:04;101435.94;;;31.80;65.22
23223;BME280;11780;13.904;100.620;2024-03-17T01:40:31;101434.59;;;31.78;65.02
23223;BME280;11780;13.904;100.620;2024-03-17T01:42:59;101442.59;;;31.79;65.08
23223;BME280;11780;13.904;100.620;2024-03-17T01:45:31;101445.25;;;31.84;65.50
23223;BME280;11780;13.904;100.620;2024-03-17T01:48:02;101434.34;;;31.88;65.09
23223;BME280;11780;13.904;100.620;2024-03-17T01:50:39;101435.16;;;31.88;64.98
23223;BME280;11780;13.904;100.620;2024-03-17T01:53:09;101450.50;;;31.95;65.03
23223;BME280;11780;13.904;100.620;2024-03-17T01:55:39;101443.22;;;31.99;64.80
23223;BME280;11780;13.904;100.620;2024-03-17T01:58:07;101445.50;;;31.97;65.52
23223;BME280;11780;13.904;100.620;2024-03-17T02:00:37;101446.81;;;31.99;65.05
23223;BME280;11780;13.904;100.620;2024-03-17T05:33:06;101178.97;;;33.81;53.90
23223;BME280;11780;13.904;100.620;2024-03-17T05:35:35;101172.72;;;33.93;53.75
23223;BME280;11780;13.904;100.620;2024-03-17T05:38:02;101162.88;;;34.04;52.92
23223;BME280;11780;13.904;100.620;2024-03-17T05:40:30;101155.63;;;34.12;53.04
23223;BME280;11780;13.904;100.620;2024-03-17T05:42:58;101155.88;;;34.19;53.04
23223;BME280;11780;13.904;100.620;2024-03-17T05:45:27;101147.84;;;34.26;52.91
23223;BME280;11780;13.904;100.620;2024-03-17T05:47:55;101150.09;;;34.33;52.75
23223;BME280;11780;13.904;100.620;2024-03-17T05:50:23;101137.38;;;34.53;51.13
23223;BME280;11780;13.904;100.620;2024-03-17T05:52:51;101140.25;;;34.36;51.43
23223;BME280;11780;13.904;100.620;2024-03-17T05:55:19;101132.28;;;34.34;51.51
23223;BME280;11780;13.904;100.620;2024-03-17T05:57:46;101134.22;;;34.34;51.87
23223;BME280;11780;13.904;100.620;2024-03-17T06:00:14;101135.00;;;34.43;51.77
23223;BME280;11780;13.904;100.620;2024-03-17T06:02:43;101111.44;;;34.49;51.42
23223;BME280;11780;13.904;100.620;2024-03-17T06:05:11;101120.63;;;34.41;51.57
23223;BME280;11780;13.904;100.620;2024-03-17T06:07:40;101118.53;;;34.38;51.62
23223;BME280;11780;13.904;100.620;2024-03-17T06:10:09;101107.59;;;34.41;52.09
23223;BME280;11780;13.904;100.620;2024-03-17T06:12:37;101105.75;;;34.45;52.10
23223;BME280;11780;13.904;100.620;2024-03-17T06:15:05;101109.34;;;34.46;51.62
23223;BME280;11780;13.904;100.620;2024-03-17T06:17:33;101104.47;;;34.43;52.20
23223;BME280;11780;13.904;100.620;2024-03-17T06:20:01;101106.81;;;34.53;51.96
23223;BME280;11780;13.904;100.620;2024-03-17T06:22:30;101096.78;;;34.61;51.32
23223;BME280;11780;13.904;100.620;2024-03-17T06:24:58;101102.00;;;34.63;51.20
23223;BME280;11780;13.904;100.620;2024-03-17T06:27:26;101094.50;;;34.75;50.56
23223;BME280;11780;13.904;100.620;2024-03-17T06:29:54;101084.69;;;34.78;50.28
23223;BME280;11780;13.904;100.620;2024-03-17T06:32:22;101080.97;;;34.74;50.19
23223;BME280;11780;13.904;100.620;2024-03-17T06:34:51;101075.63;;;34.69;49.87
23223;BME280;11780;13.904;100.620;2024-03-17T06:37:19;101072.16;;;34.72;50.47
23223;BME280;11780;13.904;100.620;2024-03-17T06:39:47;101073.88;;;34.64;50.12
23223;BME280;11780;13.904;100.620;2024-03-17T06:42:14;101060.09;;;34.68;50.80
23223;BME280;11780;13.904;100.620;2024-03-17T06:44:43;101069.38;;;34.72;50.45
23223;BME280;11780;13.904;100.620;2024-03-17T06:47:10;101057.81;;;34.82;50.18
23223;BME280;11780;13.904;100.620;2024-03-17T06:49:39;101044.97;;;34.90;50.11
23223;BME280;11780;13.904;100.620;2024-03-17T06:52:06;101044.06;;;34.86;50.27
23223;BME280;11780;13.904;100.620;2024-03-17T06:54:34;101035.72;;;34.86;49.43
23223;BME280;11780;13.904;100.620;2024-03-17T06:57:02;101043.91;;;34.82;50.30
23223;BME280;11780;13.904;100.620;2024-03-17T06:59:33;101034.31;;;34.80;50.27
23223;BME280;11780;13.904;100.620;2024-03-17T07:02:01;101035.38;;;34.87;50.04
23223;BME280;11780;13.904;100.620;2024-03-17T07:04:28;101033.47;;;35.00;49.88
23223;BME280;11780;13.904;100.620;2024-03-17T07:06:56;101038.19;;;35.00;49.51
23223;BME280;11780;13.904;100.620;2024-03-17T07:09:24;101025.00;;;35.09;48.71
23223;BME280;11780;13.904;100.620;2024-03-17T07:11:52;101026.75;;;35.01;49.08
23223;BME280;11780;13.904;100.620;2024-03-17T07:14:20;101017.34;;;34.94;49.40
23223;BME280;11780;13.904;100.620;2024-03-17T07:16:48;101003.69;;;35.01;49.16
23223;BME280;11780;13.904;100.620;2024-03-17T07:19:16;101009.34;;;35.04;48.92
23223;BME280;11780;13.904;100.620;2024-03-17T07:21:44;101002.28;;;35.19;48.48
23223;BME280;11780;13.904;100.620;2024-03-17T07:24:11;100992.56;;;35.13;48.80
23223;BME280;11780;13.904;100.620;2024-03-17T07:26:40;100993.25;;;34.98;49.27
23223;BME280;11780;13.904;100.620;2024-03-17T07:29:08;100980.97;;;34.99;49.53
23223;BME280;11780;13.904;100.620;2024-03-17T07:31:36;100980.06;;;35.07;49.14
23223;BME280;11780;13.904;100.620;2024-03-17T07:34:03;100978.44;;;35.06;49.21
23223;BME280;11780;13.904;100.620;2024-03-17T07:36:32;100970.31;;;35.13;48.98
23223;BME280;11780;13.904;100.620;2024-03-17T07:39:00;100972.88;;;35.18;49.02
23223;BME280;11780;13.904;100.620;2024-03-17T07:41:27;100967.31;;;35.18;48.61
23223;BME280;11780;13.904;100.620;2024-03-17T07:43:55;100958.75;;;35.24;48.58
23223;BME280;11780;13.904;100.620;2024-03-17T07:46:23;100958.59;;;35.20;48.43
23223;BME280;11780;13.904;100.620;2024-03-17T07:48:51;100958.84;;;35.27;48.32
23223;BME280;11780;13.904;100.620;2024-03-17T07:51:19;100953.19;;;35.24;48.71
23223;BME280;11780;13.904;100.620;2024-03-17T07:53:48;100945.50;;;35.33;48.54
23223;BME280;11780;13.904;100.620;2024-03-17T07:56:16;100947.03;;;35.30;48.80
23223;BME280;11780;13.904;100.620;2024-03-17T07:58:44;100939.84;;;35.29;48.30
23223;BME280;11780;13.904;100.620;2024-03-17T08:01:15;100937.88;;;35.17;48.96
23223;BME280;11780;13.904;100.620;2024-03-17T08:03:46;100942.06;;;35.24;48.58
23223;BME280;11780;13.904;100.620;2024-03-17T08:06:22;100937.84;;;35.30;48.35
23223;BME280;11780;13.904;100.620;2024-03-17T08:08:51;100926.63;;;35.26;47.74
23223;BME280;11780;13.904;100.620;2024-03-17T08:11:19;100924.81;;;35.18;48.23
23223;BME280;11780;13.904;100.620;2024-03-17T08:13:47;100910.31;;;35.25;47.81
23223;BME280;11780;13.904;100.620;2024-03-17T08:16:15;100915.75;;;35.21;48.27
23223;BME280;11780;13.904;100.620;2024-03-17T08:18:44;100910.78;;;35.27;47.28
23223;BME280;11780;13.904;100.620;2024-03-17T08:21:12;100912.03;;;35.29;47.28
23223;BME280;11780;13.904;100.620;2024-03-17T08:23:39;100909.59;;;35.28;47.17
23223;BME280;11780;13.904;100.620;2024-03-17T08:26:10;100905.44;;;35.21;47.43
23223;BME280;11780;13.904;100.620;2024-03-17T08:28:38;100909.94;;;35.26;46.89
23223;BME280;11780;13.904;100.620;2024-03-17T08:31:06;100898.03;;;35.13;46.58
23223;BME280;11780;13.904;100.620;2024-03-17T08:33:33;100897.94;;;34.97;46.94
23223;BME280;11780;13.904;100.620;2024-03-17T08:36:04;100894.00;;;34.86;47.23
23223;BME280;11780;13.904;100.620;2024-03-17T08:38:33;100897.34;;;34.91;47.48
23223;BME280;11780;13.904;100.620;2024-03-17T08:41:04;100884.63;;;34.90;47.19
23223;BME280;11780;13.904;100.620;2024-03-17T08:43:33;100884.38;;;34.83;47.56
23223;BME280;11780;13.904;100.620;2024-03-17T08:46:03;100892.97;;;34.78;47.77
23223;BME280;11780;13.904;100.620;2024-03-17T08:48:37;100882.75;;;34.82;47.23
23223;BME280;11780;13.904;100.620;2024-03-17T08:51:06;100879.97;;;34.82;47.18
23223;BME280;11780;13.904;100.620;2024-03-17T08:53:34;100887.41;;;34.78;47.69
23223;BME280;11780;13.904;100.620;2024-03-17T08:56:03;100882.28;;;34.92;46.79
23223;BME280;11780;13.904;100.620;2024-03-17T08:58:31;100885.41;;;34.91;46.65
23223;BME280;11780;13.904;100.620;2024-03-17T09:01:02;100878.81;;;34.71;47.03
23223;BME280;11780;13.904;100.620;2024-03-17T09:03:30;100873.97;;;34.68;47.19
23223;BME280;11780;13.904;100.620;2024-03-17T09:05:58;100873.16;;;34.67;47.14
23223;BME280;11780;13.904;100.620;2024-03-17T09:08:26;100864.03;;;34.79;47.08
23223;BME280;11780;13.904;100.620;2024-03-17T09:10:55;100865.38;;;34.85;46.90
23223;BME280;11780;13.904;100.620;2024-03-17T09:13:24;100871.41;;;34.87;47.09
23223;BME280;11780;13.904;100.620;2024-03-17T09:15:54;100860.06;;;34.92;47.14
23223;BME280;11780;13.904;100.620;2024-03-17T09:18:24;100862.63;;;34.98;47.49
23223;BME280;11780;13.904;100.620;2024-03-17T09:21:01;100865.28;;;34.94;47.71
23223;BME280;11780;13.904;100.620;2024-03-17T09:23:30;100866.91;;;34.95;47.71
23223;BME280;11780;13.904;100.620;2024-03-17T09:26:09;100865.88;;;35.00;47.24
23223;BME280;11780;13.904;100.620;2024-03-17T09:28:37;100867.75;;;34.96;47.19
23223;BME280;11780;13.904;100.620;2024-03-17T09:31:05;100865.41;;;34.98;47.05
23223;BME280;11780;13.904;100.620;2024-03-17T09:33:35;100864.97;;;34.96;47.12
23223;BME280;11780;13.904;100.620;2024-03-17T09:36:05;100880.69;;;34.91;47.35
23223;BME280;11780;13.904;100.620;2024-03-17T09:38:35;100876.09;;;34.96;46.63
23223;BME280;11780;13.904;100.620;2024-03-17T09:41:03;100876.97;;;35.00;46.30
23223;BME280;11780;13.904;100.620;2024-03-17T09:43:36;100869.00;;;34.98;46.32
23223;BME280;11780;13.904;100.620;2024-03-17T09:46:05;100868.91;;;34.95;45.95
23223;BME280;11780;13.904;100.620;2024-03-17T09:48:35;100877.66;;;34.97;46.33
23223;BME280;11780;13.904;100.620;2024-03-17T09:51:03;100884.25;;;34.92;46.15
23223;BME280;11780;13.904;100.620;2024-03-17T09:53:33;100873.97;;;34.92;46.56
23223;BME280;11780;13.904;100.620;2024-03-17T09:56:22;100890.16;;;34.90;46.21
23223;BME280;11780;13.904;100.620;2024-03-17T09:58:51;100881.38;;;34.88;46.13
23223;BME280;11780;13.904;100.620;2024-03-17T10:01:19;100882.53;;;34.87;45.88
23223;BME280;11780;13.904;100.620;2024-03-17T10:03:52;100877.44;;;34.89;45.73
23223;BME280;11780;13.904;100.620;2024-03-17T10:06:26;100886.94;;;34.88;45.99
23223;BME280;11780;13.904;100.620;2024-03-17T10:09:00;100884.50;;;34.87;45.76
23223;BME280;11780;13.904;100.620;2024-03-17T10:11:43;100886.34;;;34.83;46.22
23223;BME280;11780;13.904;100.620;2024-03-17T10:14:13;100881.13;;;34.81;46.72
23223;BME280;11780;13.904;100.620;2024-03-17T10:16:44;100878.25;;;34.78;46.94
23223;BME280;11780;13.904;100.620;2024-03-17T10:19:34;100881.50;;;34.80;46.71
23223;BME280;11780;13.904;100.620;2024-03-17T10:22:12;100879.53;;;34.80;46.45
23223;BME280;11780;13.904;100.620;2024-03-17T10:24:40;100880.22;;;34.77;47.15
23223;BME280;11780;13.904;100.620;2024-03-17T10:27:11;100878.63;;;34.64;47.80
23223;BME280;11780;13.904;100.620;2024-03-17T10:29:43;100874.91;;;34.59;48.11
23223;BME280;11780;13.904;100.620;2024-03-17T10:32:15;100882.66;;;34.54;48.38
23223;BME280;11780;13.904;100.620;2024-03-17T10:34:46;100889.69;;;34.51;49.01
23223;BME280;11780;13.904;100.620;2024-03-17T10:37:15;100889.69;;;34.51;49.06
23223;BME280;11780;13.904;100.620;2024-03-17T10:39:48;100888.53;;;34.52;48.41
23223;BME280;11780;13.904;100.620;2024-03-17T10:42:27;100891.09;;;34.45;48.70
23223;BME280;11780;13.904;100.620;2024-03-17T10:44:57;100897.81;;;34.44;48.87
23223;BME280;11780;13.904;100.620;2024-03-17T10:47:26;100889.78;;;34.42;48.43
23223;BME280;11780;13.904;100.620;2024-03-17T10:49:55;100900.44;;;34.40;48.71
23223;BME280;11780;13.904;100.620;2024-03-17T10:52:41;100901.59;;;34.39;49.05
23223;BME280;11780;13.904;100.620;2024-03-17T10:55:23;100909.09;;;34.39;49.20
23223;BME280;11780;13.904;100.620;2024-03-17T10:57:55;100910.50;;;34.33;48.98
23223;BME280;11780;13.904;100.620;2024-03-17T11:00:25;100914.84;;;34.34;49.61
23223;BME280;11780;13.904;100.620;2024-03-17T11:02:56;100916.03;;;34.33;49.59
23223;BME280;11780;13.904;100.620;2024-03-17T11:05:25;100917.03;;;34.28;49.89
23223;BME280;11780;13.904;100.620;2024-03-17T11:08:03;100920.28;;;34.30;50.00
23223;BME280;11780;13.904;100.620;2024-03-17T11:10:34;100928.50;;;34.26;49.77
23223;BME280;11780;13.904;100.620;2024-03-17T11:13:04;100924.31;;;34.20;50.25
23223;BME280;11780;13.904;100.620;2024-03-17T11:20:39;100930.09;;;34.15;50.73
23223;BME280;11780;13.904;100.620;2024-03-17T11:23:08;100938.75;;;34.13;50.91
23223;BME280;11780;13.904;100.620;2024-03-17T11:25:39;100934.72;;;34.11;50.77
23223;BME280;11780;13.904;100.620;2024-03-17T11:28:08;100946.03;;;34.06;51.22
23223;BME280;11780;13.904;100.620;2024-03-17T11:30:43;100946.03;;;34.06;51.13
23223;BME280;11780;13.904;100.620;2024-03-17T11:38:58;100965.88;;;33.95;51.26
23223;BME280;11780;13.904;100.620;2024-03-17T11:41:47;100971.78;;;33.94;51.31
23223;BME280;11780;13.904;100.620;2024-03-17T11:47:02;100978.84;;;33.82;51.58
23223;BME280;11780;13.904;100.620;2024-03-17T11:49:45;100975.75;;;33.84;51.55
23223;BME280;11780;13.904;100.620;2024-03-17T11:52:14;100984.53;;;33.86;51.83
23223;BME280;11780;13.904;100.620;2024-03-17T11:54:46;100986.38;;;33.82;51.69
23223;BME280;11780;13.904;100.620;2024-03-17T11:57:24;100994.22;;;33.80;51.68
23223;BME280;11780;13.904;100.620;2024-03-17T11:59:55;100997.47;;;33.82;51.83
23223;BME280;11780;13.904;100.620;2024-03-17T12:02:24;100994.03;;;33.85;51.81
23223;BME280;11780;13.904;100.620;2024-03-17T12:04:56;101001.38;;;33.81;51.90
23223;BME280;11780;13.904;100.620;2024-03-17T12:07:24;101005.28;;;33.89;51.74
23223;BME280;11780;13.904;100.620;2024-03-17T12:09:55;101007.72;;;33.81;51.76
23223;BME280;11780;13.904;100.620;2024-03-17T12:12:25;101002.88;;;33.78;51.76
23223;BME280;11780;13.904;100.620;2024-03-17T12:15:03;101014.13;;;33.82;51.88
23223;BME280;11780;13.904;100.620;2024-03-17T12:17:41;101018.50;;;33.83;51.91
23223;BME280;11780;13.904;100.620;2024-03-17T12:20:21;101023.84;;;33.88;52.20
23223;BME280;11780;13.904;100.620;2024-03-17T12:22:49;101023.03;;;33.88;52.37
23223;BME280;11780;13.904;100.620;2024-03-17T12:25:19;101017.91;;;33.77;52.47
23223;BME280;11780;13.904;100.620;2024-03-17T12:27:48;101024.19;;;33.86;52.44
23223;BME280;11780;13.904;100.620;2024-03-17T12:30:16;101022.06;;;33.92;52.59
23223;BME280;11780;13.904;100.620;2024-03-17T12:32:46;101021.75;;;33.85;52.76
23223;BME280;11780;13.904;100.620;2024-03-17T12:35:15;101025.69;;;33.84;52.47
23223;BME280;11780;13.904;100.620;2024-03-17T12:37:45;101031.28;;;33.75;52.26
23223;BME280;11780;13.904;100.620;2024-03-17T12:40:22;101036.09;;;33.87;52.44
23223;BME280;11780;13.904;100.620;2024-03-17T12:42:51;101045.59;;;33.86;52.38
23223;BME280;11780;13.904;100.620;2024-03-17T12:45:20;101042.97;;;33.90;52.23
23223;BME280;11780;13.904;100.620;2024-03-17T12:47:50;101051.59;;;33.88;52.30
23223;BME280;11780;13.904;100.620;2024-03-17T12:50:19;101043.78;;;33.90;52.25
23223;BME280;11780;13.904;100.620;2024-03-17T12:52:54;101045.22;;;33.96;51.80
23223;BME280;11780;13.904;100.620;2024-03-17T12:55:23;101054.56;;;33.92;52.17
23223;BME280;11780;13.904;100.620;2024-03-17T12:58:10;101045.88;;;33.93;52.37
23223;BME280;11780;13.904;100.620;2024-03-17T13:01:01;101054.22;;;33.84;52.43
23223;BME280;11780;13.904;100.620;2024-03-17T13:03:36;101056.22;;;33.84;52.51
23223;BME280;11780;13.904;100.620;2024-03-17T13:06:09;101052.00;;;33.78;53.11
23223;BME280;11780;13.904;100.620;2024-03-17T13:08:37;101050.06;;;33.78;52.96
23223;BME280;11780;13.904;100.620;2024-03-17T13:11:08;101059.16;;;33.79;53.07
23223;BME280;11780;13.904;100.620;2024-03-17T13:13:37;101058.50;;;33.82;53.04
23223;BME280;11780;13.904;100.620;2024-03-17T13:16:05;101069.00;;;33.76;53.16
23223;BME280;11780;13.904;100.620;2024-03-17T13:18:34;101064.91;;;33.74;53.24
23223;BME280;11780;13.904;100.620;2024-03-17T13:21:03;101063.22;;;33.81;53.01
23223;BME280;11780;13.904;100.620;2024-03-17T13:23:31;101060.66;;;33.76;53.77
23223;BME280;11780;13.904;100.620;2024-03-17T13:25:58;101066.47;;;33.83;53.62
23223;BME280;11780;13.904;100.620;2024-03-17T13:28:26;101073.41;;;33.77;54.01
23223;BME280;11780;13.904;100.620;2024-03-17T13:30:55;101088.59;;;33.71;54.19
23223;BME280;11780;13.904;100.620;2024-03-17T13:33:23;101087.94;;;33.74;54.20
23223;BME280;11780;13.904;100.620;2024-03-17T13:35:51;101087.63;;;33.67;54.61
23223;BME280;11780;13.904;100.620;2024-03-17T13:38:18;101088.78;;;33.66;54.49
23223;BME280;11780;13.904;100.620;2024-03-17T13:40:46;101079.53;;;33.62;54.55
23223;BME280;11780;13.904;100.620;2024-03-17T13:43:15;101084.59;;;33.60;54.99
23223;BME280;11780;13.904;100.620;2024-03-17T13:45:42;101087.97;;;33.65;54.94
23223;BME280;11780;13.904;100.620;2024-03-17T13:48:11;101083.22;;;33.66;55.07
23223;BME280;11780;13.904;100.620;2024-03-17T13:52:57;101090.78;;;33.57;55.74
23223;BME280;11780;13.904;100.620;2024-03-17T13:55:25;101090.44;;;33.58;55.49
23223;BME280;11780;13.904;100.620;2024-03-17T13:57:55;101080.50;;;33.57;55.65
23223;BME280;11780;13.904;100.620;2024-03-17T14:00:25;101083.63;;;33.55;55.76
23223;BME280;11780;13.904;100.620;2024-03-17T14:02:54;101090.28;;;33.63;56.19
23223;BME280;11780;13.904;100.620;2024-03-17T14:05:26;101093.63;;;33.48;55.87
23223;BME280;11780;13.904;100.620;2024-03-17T14:07:55;101106.28;;;33.58;55.98
23223;BME280;11780;13.904;100.620;2024-03-17T14:10:24;101102.06;;;33.51;55.93
23223;BME280;11780;13.904;100.620;2024-03-17T14:12:52;101104.19;;;33.54;55.78
23223;BME280;11780;13.904;100.620;2024-03-17T14:15:26;101108.06;;;33.62;55.37
23223;BME280;11780;13.904;100.620;2024-03-17T14:17:53;101100.88;;;33.61;55.37
23223;BME280;11780;13.904;100.620;2024-03-17T14:20:22;101100.75;;;33.58;55.50
23223;BME280;11780;13.904;100.620;2024-03-17T14:22:52;101101.38;;;33.63;55.56
23223;BME280;11780;13.904;100.620;2024-03-17T14:25:21;101098.94;;;33.62;55.62
23223;BME280;11780;13.904;100.620;2024-03-17T14:27:49;101107.25;;;33.62;55.97
23223;BME280;11780;13.904;100.620;2024-03-17T14:30:18;101107.25;;;33.62;55.63
23223;BME280;11780;13.904;100.620;2024-03-17T14:32:47;101119.81;;;33.59;56.11
23223;BME280;11780;13.904;100.620;2024-03-17T14:35:17;101118.53;;;33.57;56.20
23223;BME280;11780;13.904;100.620;2024-03-17T14:37:48;101116.56;;;33.57;56.34
23223;BME280;11780;13.904;100.620;2024-03-17T14:40:17;101119.03;;;33.59;56.10
23223;BME280;11780;13.904;100.620;2024-03-17T14:42:51;101126.19;;;33.60;56.07
23223;BME280;11780;13.904;100.620;2024-03-17T14:45:19;101122.59;;;33.59;56.32
23223;BME280;11780;13.904;100.620;2024-03-17T14:47:49;101122.31;;;33.52;56.42
23223;BME280;11780;13.904;100.620;2024-03-17T14:50:17;101125.25;;;33.47;56.51
23223;BME280;11780;13.904;100.620;2024-03-17T14:52:45;101121.69;;;33.46;56.76
23223;BME280;11780;13.904;100.620;2024-03-17T14:55:14;101125.09;;;33.52;56.61
23223;BME280;11780;13.904;100.620;2024-03-17T14:57:41;101131.44;;;33.52;56.63
23223;BME280;11780;13.904;100.620;2024-03-17T15:00:13;101131.13;;;33.54;56.72
23223;BME280;11780;13.904;100.620;2024-03-17T15:02:45;101123.47;;;33.51;56.85
23223;BME280;11780;13.904;100.620;2024-03-17T15:05:14;101125.56;;;33.54;56.88
23223;BME280;11780;13.904;100.620;2024-03-17T15:07:42;101125.09;;;33.52;56.98
23223;BME280;11780;13.904;100.620;2024-03-17T15:10:11;101128.66;;;33.52;56.96
23223;BME280;11780;13.904;100.620;2024-03-17T15:12:56;101125.22;;;33.55;56.86
23223;BME280;11780;13.904;100.620;2024-03-17T15:15:24;101135.84;;;33.53;57.17
23223;BME280;11780;13.904;100.620;2024-03-17T15:17:53;101140.59;;;33.53;57.63
23223;BME280;11780;13.904;100.620;2024-03-17T15:20:20;101129.16;;;33.54;57.77
23223;BME280;11780;13.904;100.620;2024-03-17T15:22:49;101133.41;;;33.52;57.67
23223;BME280;11780;13.904;100.620;2024-03-17T15:25:17;101131.56;;;33.56;57.90
23223;BME280;11780;13.904;100.620;2024-03-17T15:27:47;101136.47;;;33.59;57.81
23223;BME280;11780;13.904;100.620;2024-03-17T15:30:18;101133.53;;;33.55;57.91
23223;BME280;11780;13.904;100.620;2024-03-17T15:32:48;101129.97;;;33.55;57.78
23223;BME280;11780;13.904;100.620;2024-03-17T15:35:16;101125.41;;;33.50;57.78
23223;BME280;11780;13.904;100.620;2024-03-17T15:37:44;101125.75;;;33.49;58.07
23223;BME280;11780;13.904;100.620;2024-03-17T15:40:12;101128.53;;;33.49;58.32
23223;BME280;11780;13.904;100.620;2024-03-17T15:42:49;101124.59;;;33.50;58.31
23223;BME280;11780;13.904;100.620;2024-03-17T15:45:19;101121.34;;;33.48;58.39
23223;BME280;11780;13.904;100.620;2024-03-17T15:47:52;101122.50;;;33.47;58.36
23223;BME280;11780;13.904;100.620;2024-03-17T15:50:20;101122.50;;;33.47;58.58
23223;BME280;11780;13.904;100.620;2024-03-17T15:53:08;101127.41;;;33.41;58.53
23223;BME280;11780;13.904;100.620;2024-03-17T15:55:37;101127.25;;;33.46;58.49
23223;BME280;11780;13.904;100.620;2024-03-17T15:58:05;101122.00;;;33.45;58.76
23223;BME280;11780;13.904;100.620;2024-03-17T16:00:33;101117.59;;;33.44;58.56
23223;BME280;11780;13.904;100.620;2024-03-17T16:03:06;101121.88;;;33.41;59.14
23223;BME280;11780;13.904;100.620;2024-03-17T16:05:34;101119.44;;;33.39;58.99
23223;BME280;11780;13.904;100.620;2024-03-17T16:08:02;101122.66;;;33.42;59.00
23223;BME280;11780;13.904;100.620;2024-03-17T16:10:33;101123.34;;;33.38;59.18
23223;BME280;11780;13.904;100.620;2024-03-17T16:13:02;101122.53;;;33.38;59.42
23223;BME280;11780;13.904;100.620;2024-03-17T16:15:31;101114.22;;;33.38;59.41
23223;BME280;11780;13.904;100.620;2024-03-17T16:18:00;101108.81;;;33.33;59.50
23223;BME280;11780;13.904;100.620;2024-03-17T16:23:17;101114.34;;;33.33;59.53
23223;BME280;11780;13.904;100.620;2024-03-17T16:25:50;101112.91;;;33.35;59.79
23223;BME280;11780;13.904;100.620;2024-03-17T16:28:22;101109.63;;;33.33;59.74
23223;BME280;11780;13.904;100.620;2024-03-17T16:30:51;101113.72;;;33.36;59.96
23223;BME280;11780;13.904;100.620;2024-03-17T16:33:19;101104.09;;;33.33;60.08